ADDS METAR Data INFO
IDs: Format: Raw Decoded Include TAF

Data at: 1610 UTC 14 Aug 2018

KP08 141555Z AUTO 24006KT 10SM CLR 31/18 A2993 RMK AO2
KP08 141535Z AUTO 22008KT 10SM CLR 31/18 A2992 RMK AO2
KP08 141515Z AUTO 23009KT 10SM CLR 31/18 A2992 RMK AO2
KP08 141455Z AUTO 21008KT 30/18 A2992 RMK AO2
KP08 141435Z AUTO 20007KT A2992 RMK AO2 PWINO
KP08 141415Z AUTO 19007KT 10SM CLR 29/18 A2992 RMK AO2
KP08 141355Z AUTO 19006KT 10SM CLR 29/18 A2991 RMK AO2
KP08 141335Z AUTO 18004KT 10SM CLR 28/19 A2991 RMK AO2
KP08 141315Z AUTO 17005KT 10SM CLR 28/19 A2990 RMK AO2
KP08 141255Z AUTO 18005KT 10SM CLR 28/19 A2990 RMK AO2
KP08 141235Z AUTO 17005KT 10SM CLR 28/19 A2989 RMK AO2
KP08 141215Z AUTO 18003KT 10SM CLR 28/19 A2989 RMK AO2
KP08 141155Z AUTO 19004KT 10SM CLR 28/20 A2989 RMK AO2
KP08 141135Z AUTO 18004KT 10SM CLR 28/20 A2988 RMK AO2
KP08 141115Z AUTO 20005KT 10SM CLR 28/20 A2988 RMK AO2
KP08 141055Z AUTO 20005KT 10SM CLR 28/20 A2987 RMK AO2
KP08 141035Z AUTO 19006KT 10SM CLR 28/20 A2987 RMK AO2
KP08 141015Z AUTO 20006KT 10SM CLR 28/20 A2987 RMK AO2
KP08 140955Z AUTO 21007KT 10SM CLR 28/21 A2986 RMK AO2
KP08 140935Z AUTO 19006KT 10SM CLR 29/20 A2987 RMK AO2
KP08 140915Z AUTO 19009KT 10SM CLR 29/20 A2987 RMK AO2
KP08 140855Z AUTO 20010KT 10SM CLR 29/20 A2986 RMK AO2
KP08 140835Z AUTO 21008KT 10SM CLR 29/20 A2986 RMK AO2
KP08 140815Z AUTO 19010KT 10SM CLR 29/19 A2987 RMK AO2
KP08 140755Z AUTO 20008KT 10SM CLR 30/17 A2987 RMK AO2
KP08 140735Z AUTO 19004KT 10SM CLR 30/17 A2986 RMK AO2
KP08 140715Z AUTO 16004KT 10SM CLR 30/17 A2986 RMK AO2
KP08 140655Z AUTO 16004KT 10SM CLR 30/17 A2986 RMK AO2
KP08 140635Z AUTO 16004KT 10SM CLR 31/17 A2987 RMK AO2
KP08 140615Z AUTO 13004KT 10SM CLR 31/17 A2988 RMK AO2
KP08 140555Z AUTO 16004KT 10SM CLR 31/17 A2987 RMK AO2
KP08 140535Z AUTO 00000KT 10SM CLR 32/17 A2987 RMK AO2
KP08 140515Z AUTO 00000KT 10SM CLR 32/17 A2987 RMK AO2
KP08 140455Z AUTO 00000KT 10SM SCT100 32/17 A2987 RMK AO2
KP08 140435Z AUTO 00000KT 10SM SCT100 32/17 A2987 RMK AO2
KP08 140415Z AUTO 26003KT 10SM CLR 32/17 A2986 RMK AO2
KP08 140355Z AUTO 29003KT 10SM CLR 32/17 A2985 RMK AO2
KP08 140335Z AUTO 27004KT 10SM CLR 32/17 A2984 RMK AO2
KP08 140315Z AUTO 00000KT 10SM CLR 33/17 A2984 RMK AO2
KP08 140255Z AUTO 00000KT 10SM CLR 33/17 A2984 RMK AO2
KP08 140235Z AUTO 00000KT 10SM CLR 33/17 A2985 RMK AO2
KP08 140215Z AUTO 32004KT 10SM CLR 34/16 A2985 RMK AO2
KP08 140155Z AUTO 31005KT 10SM CLR 34/16 A2985 RMK AO2
KP08 140135Z AUTO 27005KT 10SM CLR 35/16 A2985 RMK AO2
KP08 140115Z AUTO VRB06KT 10SM CLR 35/16 A2984 RMK AO2
KP08 140055Z AUTO 29007KT 10SM CLR 35/16 A2984 RMK AO2
KP08 140035Z AUTO 30008KT 10SM CLR 35/16 A2984 RMK AO2
KP08 140015Z AUTO 30007KT 10SM CLR 35/16 A2984 RMK AO2
KP08 132355Z AUTO 29009KT 270V330 10SM CLR 35/16 A2985 RMK AO2
KP08 132335Z AUTO 30006G12KT 10SM CLR 35/16 A2985 RMK AO2
KP08 132315Z AUTO 31009KT 10SM CLR 35/15 A2985 RMK AO2
KP08 132255Z AUTO 30008KT 10SM CLR 36/15 A2986 RMK AO2
KP08 132235Z AUTO 28009G14KT 250V310 10SM CLR 36/15 A2987 RMK AO2
KP08 132215Z AUTO 28006KT 10SM CLR 35/16 A2988 RMK AO2
KP08 132155Z AUTO 26008KT 10SM CLR 36/16 A2989 RMK AO2
KP08 132135Z AUTO VRB06G12KT 9SM CLR 35/15 A2991 RMK AO2
KP08 132115Z AUTO 25009KT 10SM CLR 35/15 A2992 RMK AO2
KP08 132055Z AUTO 25010KT 230V290 10SM CLR 35/16 A2993 RMK AO2
KP08 132035Z AUTO 27009KT 10SM CLR 34/15 A2994 RMK AO2
KP08 132015Z AUTO 27008KT 10SM CLR 34/15 A2994 RMK AO2
KP08 131950Z AUTO VRB05G12KT 10SM CLR 34/16 A2995 RMK AO2
KP08 131925Z AUTO 24007KT 10SM CLR 33/17 A2996 RMK AO2
KP08 131915Z AUTO 21005KT 10SM CLR 33/16 A2997 RMK AO2
KP08 131855Z AUTO 22008KT 10SM CLR 33/15 A2998 RMK AO2
KP08 131835Z AUTO 22006KT 10SM CLR 32/16 A2998 RMK AO2
KP08 131815Z AUTO 26009KT 9SM CLR 32/17 A2998 RMK AO2
KP08 131755Z AUTO 25007KT 10SM CLR 31/17 A2998 RMK AO2
KP08 131735Z AUTO 24006G12KT 10SM CLR 31/18 A2998 RMK AO2
KP08 131715Z AUTO 24006KT 8SM CLR 30/17 A2999 RMK AO2
KP08 131655Z AUTO 23006G11KT 10SM CLR 30/17 A2999 RMK AO2
KP08 131635Z AUTO 23005KT 10SM CLR 30/17 A2999 RMK AO2
KP08 131615Z AUTO 19004KT 9SM CLR 29/17 A2998 RMK AO2
KP08 131555Z AUTO 21006KT 9SM CLR 29/17 A2998 RMK AO2
KP08 131535Z AUTO VRB06KT 10SM CLR 28/18 A2999 RMK AO2
KP08 131515Z AUTO 21007KT 10SM CLR 28/18 A2999 RMK AO2
KP08 131455Z AUTO 19007KT 10SM FEW015 27/19 A2998 RMK AO2
KP08 131435Z AUTO 17010KT 9SM CLR 27/19 A2998 RMK AO2
KP08 131415Z AUTO 17005KT 9SM CLR 26/19 A2997 RMK AO2
KP08 131355Z AUTO 13003KT 10SM CLR 25/19 A2998 RMK AO2
KP08 131335Z AUTO 00000KT 10SM CLR 24/19 A2997 RMK AO2
KP08 131315Z AUTO 00000KT 10SM CLR 24/19 A2998 RMK AO2
KP08 131255Z AUTO 00000KT 10SM CLR 24/19 A2997 RMK AO2
KP08 131235Z AUTO 34003KT 10SM CLR 24/19 A2997 RMK AO2
KP08 131215Z AUTO 00000KT 10SM CLR 25/18 A2996 RMK AO2
KP08 131155Z AUTO 15003KT 10SM CLR 25/18 A2995 RMK AO2
KP08 131135Z AUTO 13005KT 10SM CLR 25/18 A2995 RMK AO2
KP08 131115Z AUTO 12007KT 10SM CLR 25/18 A2995 RMK AO2
KP08 131055Z AUTO 12005KT 10SM CLR 25/19 A2995 RMK AO2
KP08 131035Z AUTO 13004KT 10SM CLR 25/19 A2996 RMK AO2
KP08 131015Z AUTO 11004KT 10SM CLR 26/18 A2996 RMK AO2
KP08 130955Z AUTO 00000KT 10SM CLR 26/18 A2996 RMK AO2
KP08 130935Z AUTO 22003KT 10SM CLR 26/18 A2995 RMK AO2
KP08 130915Z AUTO 00000KT 10SM CLR 27/18 A2995 RMK AO2
KP08 130855Z AUTO 00000KT 10SM CLR 27/18 A2996 RMK AO2
KP08 130835Z AUTO 22007KT 10SM CLR 27/18 A2995 RMK AO2
KP08 130815Z AUTO 20013KT 10SM CLR 27/18 A2993 RMK AO2
KP08 130755Z AUTO 22007G15KT 10SM FEW095 FEW120 27/18 A2996 RMK AO2
KP08 130735Z AUTO 21009KT 10SM CLR 27/18 A2997 RMK AO2 LTG DSNT W
KP08 130715Z AUTO 21009KT 10SM CLR 27/18 A2998 RMK AO2
KP08 130655Z AUTO 30006KT 10SM VCTS CLR 27/17 A2998 RMK AO2 LTG DSNT NW
KP08 130635Z AUTO 27009KT 10SM VCTS FEW110 28/16 A2997 RMK AO2 LTG DSNT N AND NW
KP08 130615Z AUTO 28013KT 10SM BKN110 28/16 A2999 RMK AO2 LTG DSNT N AND NE
KP08 130555Z AUTO 00000G10KT 10SM CLR 29/16 A2996 RMK AO2 LTG DSNT NE AND SW AND W
KP08 130535Z AUTO 08007KT 10SM CLR 29/15 A2993 RMK AO2 LTG DSNT SW AND W
KP08 130515Z AUTO 06009KT 10SM CLR 30/14 A2991 RMK AO2
KP08 130455Z AUTO 08010KT 10SM CLR 29/15 A2989 RMK AO2
KP08 130435Z AUTO 05008KT 10SM CLR 29/15 A2989 RMK AO2
KP08 130415Z AUTO 03010KT 10SM CLR 29/15 A2989 RMK AO2